sensor_id;sensor_type;location;lat;lon;timestamp;pressure;altitude;pressure_sealevel;temperature;humidity
45369;BME280;51342;55.250;37.668;2023-03-21T00:03:53;99273.50;;;1.54;65.82
45369;BME280;51342;55.250;37.668;2023-03-21T00:06:24;99271.06;;;1.56;65.75
45369;BME280;51342;55.250;37.668;2023-03-21T00:08:56;99265.97;;;1.56;65.71
45369;BME280;51342;55.250;37.668;2023-03-21T00:11:27;99269.28;;;1.55;65.70
45369;BME280;51342;55.250;37.668;2023-03-21T00:13:59;99260.59;;;1.53;65.88
45369;BME280;51342;55.250;37.668;2023-03-21T00:16:32;99261.34;;;1.52;66.16
45369;BME280;51342;55.250;37.668;2023-03-21T00:19:05;99260.59;;;1.53;66.24
45369;BME280;51342;55.250;37.668;2023-03-21T00:21:36;99250.28;;;1.51;66.22
45369;BME280;51342;55.250;37.668;2023-03-21T00:24:08;99252.81;;;1.51;65.95
45369;BME280;51342;55.250;37.668;2023-03-21T00:26:40;99250.28;;;1.51;66.07
45369;BME280;51342;55.250;37.668;2023-03-21T00:29:11;99249.38;;;1.51;65.87
45369;BME280;51342;55.250;37.668;2023-03-21T00:31:42;99245.16;;;1.51;66.11
45369;BME280;51342;55.250;37.668;2023-03-21T00:34:14;99235.75;;;1.50;66.10
45369;BME280;51342;55.250;37.668;2023-03-21T00:36:45;99244.16;;;1.49;66.08
45369;BME280;51342;55.250;37.668;2023-03-21T00:39:17;99236.13;;;1.45;66.29
45369;BME280;51342;55.250;37.668;2023-03-21T00:41:48;99243.88;;;1.46;66.43
45369;BME280;51342;55.250;37.668;2023-03-21T00:44:21;99243.00;;;1.46;66.51
45369;BME280;51342;55.250;37.668;2023-03-21T00:46:53;99241.50;;;1.48;66.44
45369;BME280;51342;55.250;37.668;2023-03-21T00:49:24;99238.03;;;1.47;66.34
45369;BME280;51342;55.250;37.668;2023-03-21T00:51:56;99232.81;;;1.46;66.32
45369;BME280;51342;55.250;37.668;2023-03-21T00:54:28;99224.03;;;1.42;66.46
45369;BME280;51342;55.250;37.668;2023-03-21T00:57:01;99231.91;;;1.45;66.62
45369;BME280;51342;55.250;37.668;2023-03-21T00:59:34;99232.81;;;1.46;66.71
45369;BME280;51342;55.250;37.668;2023-03-21T01:02:06;99223.25;;;1.43;67.00
45369;BME280;51342;55.250;37.668;2023-03-21T01:04:38;99230.13;;;1.44;66.80
45369;BME280;51342;55.250;37.668;2023-03-21T01:07:10;99225.66;;;1.42;66.85
45369;BME280;51342;55.250;37.668;2023-03-21T01:09:42;99228.19;;;1.42;67.11
45369;BME280;51342;55.250;37.668;2023-03-21T01:12:14;99216.09;;;1.39;67.28
45369;BME280;51342;55.250;37.668;2023-03-21T01:14:45;99216.38;;;1.42;67.47
45369;BME280;51342;55.250;37.668;2023-03-21T01:17:17;99219.16;;;1.45;67.48
45369;BME280;51342;55.250;37.668;2023-03-21T01:19:51;99213.31;;;1.46;67.96
45369;BME280;51342;55.250;37.668;2023-03-21T01:22:22;99205.41;;;1.43;67.96
45369;BME280;51342;55.250;37.668;2023-03-21T01:24:54;99209.09;;;1.47;68.32
45369;BME280;51342;55.250;37.668;2023-03-21T01:27:25;99204.00;;;1.47;68.25
45369;BME280;51342;55.250;37.668;2023-03-21T01:29:57;99204.88;;;1.47;68.46
45369;BME280;51342;55.250;37.668;2023-03-21T01:32:29;99202.34;;;1.47;68.41
45369;BME280;51342;55.250;37.668;2023-03-21T01:35:00;99199.03;;;1.48;68.52
45369;BME280;51342;55.250;37.668;2023-03-21T01:37:32;99200.44;;;1.45;68.50
45369;BME280;51342;55.250;37.668;2023-03-21T01:40:05;99208.19;;;1.46;68.27
45369;BME280;51342;55.250;37.668;2023-03-21T01:42:38;99204.75;;;1.46;68.39
45369;BME280;51342;55.250;37.668;2023-03-21T01:48:20;99198.53;;;1.42;68.69
45369;BME280;51342;55.250;37.668;2023-03-21T01:50:55;99197.59;;;1.42;68.70
45369;BME280;51342;55.250;37.668;2023-03-21T01:53:39;99192.38;;;1.40;68.88
45369;BME280;51342;55.250;37.668;2023-03-21T01:56:29;99184.09;;;1.32;68.54
45369;BME280;51342;55.250;37.668;2023-03-21T01:59:26;99189.84;;;1.40;68.63
45369;BME280;51342;55.250;37.668;2023-03-21T02:02:14;99187.06;;;1.37;68.67
45369;BME280;51342;55.250;37.668;2023-03-21T02:05:20;99191.38;;;1.38;68.70
45369;BME280;51342;55.250;37.668;2023-03-21T02:07:53;99189.59;;;1.37;68.39
45369;BME280;51342;55.250;37.668;2023-03-21T02:10:25;99199.78;;;1.37;68.71
45369;BME280;51342;55.250;37.668;2023-03-21T02:13:03;99199.63;;;1.36;68.72
45369;BME280;51342;55.250;37.668;2023-03-21T02:15:42;99198.75;;;1.35;68.80
45369;BME280;51342;55.250;37.668;2023-03-21T02:18:53;99178.91;;;1.31;68.94
45369;BME280;51342;55.250;37.668;2023-03-21T02:27:23;99167.66;;;1.29;69.14
45369;BME280;51342;55.250;37.668;2023-03-21T02:38:33;99162.31;;;1.36;68.08
45369;BME280;51342;55.250;37.668;2023-03-21T02:41:17;99163.34;;;1.38;68.23
45369;BME280;51342;55.250;37.668;2023-03-21T02:43:57;99165.00;;;1.38;68.16
45369;BME280;51342;55.250;37.668;2023-03-21T02:46:39;99155.69;;;1.38;68.04
45369;BME280;51342;55.250;37.668;2023-03-21T02:49:29;99159.25;;;1.40;67.95
45369;BME280;51342;55.250;37.668;2023-03-21T02:52:02;99158.25;;;1.38;67.86
45369;BME280;51342;55.250;37.668;2023-03-21T02:54:36;99149.19;;;1.42;68.13
45369;BME280;51342;55.250;37.668;2023-03-21T02:57:09;99149.84;;;1.39;68.14
45369;BME280;51342;55.250;37.668;2023-03-21T02:59:40;99148.94;;;1.39;67.98
45369;BME280;51342;55.250;37.668;2023-03-21T03:02:21;99146.88;;;1.35;68.14
45369;BME280;51342;55.250;37.668;2023-03-21T03:04:53;99143.72;;;1.37;68.36
45369;BME280;51342;55.250;37.668;2023-03-21T03:15:59;99145.75;;;1.31;67.87
45369;BME280;51342;55.250;37.668;2023-03-21T03:21:31;99135.56;;;1.31;68.37
45369;BME280;51342;55.250;37.668;2023-03-21T03:24:22;99140.28;;;1.26;68.33
45369;BME280;51342;55.250;37.668;2023-03-21T03:26:58;99133.63;;;1.28;68.53
45369;BME280;51342;55.250;37.668;2023-03-21T03:29:32;99134.38;;;1.07;68.89
45369;BME280;51342;55.250;37.668;2023-03-21T03:32:18;99131.84;;;1.17;68.40
45369;BME280;51342;55.250;37.668;2023-03-21T03:34:52;99129.97;;;1.25;68.67
45369;BME280;51342;55.250;37.668;2023-03-21T03:37:34;99133.53;;;1.27;68.61
45369;BME280;51342;55.250;37.668;2023-03-21T03:40:14;99132.63;;;1.26;68.53
45369;BME280;51342;55.250;37.668;2023-03-21T03:43:02;99125.59;;;1.24;68.15
45369;BME280;51342;55.250;37.668;2023-03-21T03:45:46;99128.31;;;1.25;68.40
45369;BME280;51342;55.250;37.668;2023-03-21T03:48:25;99132.75;;;1.28;68.07
45369;BME280;51342;55.250;37.668;2023-03-21T03:51:14;99122.44;;;1.26;68.15
45369;BME280;51342;55.250;37.668;2023-03-21T03:54:18;99125.09;;;1.28;68.20
45369;BME280;51342;55.250;37.668;2023-03-21T03:56:52;99121.78;;;1.29;68.50
45369;BME280;51342;55.250;37.668;2023-03-21T03:59:24;99111.59;;;1.29;68.71
45369;BME280;51342;55.250;37.668;2023-03-21T04:02:16;99115.91;;;1.30;68.48
45369;BME280;51342;55.250;37.668;2023-03-21T04:04:48;99113.53;;;1.31;68.43
45369;BME280;51342;55.250;37.668;2023-03-21T04:07:23;99118.09;;;1.36;68.28
45369;BME280;51342;55.250;37.668;2023-03-21T04:09:57;99108.78;;;1.36;68.36
45369;BME280;51342;55.250;37.668;2023-03-21T04:12:29;99116.06;;;1.42;68.12
45369;BME280;51342;55.250;37.668;2023-03-21T04:15:24;99114.16;;;1.39;68.08
45369;BME280;51342;55.250;37.668;2023-03-21T04:18:04;99116.69;;;1.39;68.13
45369;BME280;51342;55.250;37.668;2023-03-21T04:20:36;99127.00;;;1.41;68.38
45369;BME280;51342;55.250;37.668;2023-03-21T04:23:08;99126.13;;;1.40;68.46
45369;BME280;51342;55.250;37.668;2023-03-21T04:25:39;99122.69;;;1.40;68.73
45369;BME280;51342;55.250;37.668;2023-03-21T04:28:11;99120.13;;;1.40;68.65
45369;BME280;51342;55.250;37.668;2023-03-21T04:30:55;99125.25;;;1.40;68.51
45369;BME280;51342;55.250;37.668;2023-03-21T04:33:29;99128.78;;;1.42;68.59
45369;BME280;51342;55.250;37.668;2023-03-21T04:36:01;99129.84;;;1.44;68.59
45369;BME280;51342;55.250;37.668;2023-03-21T04:38:35;99125.50;;;1.43;68.46
45369;BME280;51342;55.250;37.668;2023-03-21T04:41:08;99133.38;;;1.46;68.19
45369;BME280;51342;55.250;37.668;2023-03-21T04:43:39;99127.53;;;1.47;68.54
45369;BME280;51342;55.250;37.668;2023-03-21T04:46:11;99126.91;;;1.49;68.44
45369;BME280;51342;55.250;37.668;2023-03-21T04:48:42;99123.59;;;1.50;68.42
45369;BME280;51342;55.250;37.668;2023-03-21T04:51:15;99127.28;;;1.54;68.46
45369;BME280;51342;55.250;37.668;2023-03-21T04:53:46;99133.41;;;1.56;68.56
45369;BME280;51342;55.250;37.668;2023-03-21T04:56:19;99124.97;;;1.57;68.53
45369;BME280;51342;55.250;37.668;2023-03-21T04:58:51;99130.47;;;1.62;68.31
45369;BME280;51342;55.250;37.668;2023-03-21T05:01:23;99117.06;;;1.64;68.67
45369;BME280;51342;55.250;37.668;2023-03-21T05:04:00;99118.09;;;1.66;68.60
45369;BME280;51342;55.250;37.668;2023-03-21T05:06:32;99116.94;;;1.73;68.47
45369;BME280;51342;55.250;37.668;2023-03-21T05:09:04;99109.78;;;1.79;68.49
45369;BME280;51342;55.250;37.668;2023-03-21T05:11:39;99121.25;;;1.84;68.42
45369;BME280;51342;55.250;37.668;2023-03-21T05:14:15;99117.31;;;1.88;68.34
45369;BME280;51342;55.250;37.668;2023-03-21T05:16:47;99117.94;;;1.95;68.52
45369;BME280;51342;55.250;37.668;2023-03-21T05:19:26;99103.00;;;2.00;68.24
45369;BME280;51342;55.250;37.668;2023-03-21T05:22:09;99111.78;;;2.03;68.20
45369;BME280;51342;55.250;37.668;2023-03-21T05:24:44;99111.38;;;2.09;68.08
45369;BME280;51342;55.250;37.668;2023-03-21T05:27:32;99110.47;;;2.08;68.19
45369;BME280;51342;55.250;37.668;2023-03-21T05:30:14;99106.41;;;2.10;68.19
45369;BME280;51342;55.250;37.668;2023-03-21T05:32:46;99118.88;;;2.18;68.24
45369;BME280;51342;55.250;37.668;2023-03-21T05:35:18;99114.78;;;2.20;67.98
45369;BME280;51342;55.250;37.668;2023-03-21T05:37:50;99116.16;;;2.26;68.03
45369;BME280;51342;55.250;37.668;2023-03-21T05:40:22;99110.44;;;2.29;67.99
45369;BME280;51342;55.250;37.668;2023-03-21T05:42:54;99105.16;;;2.37;67.97
45369;BME280;51342;55.250;37.668;2023-03-21T05:45:27;99097.34;;;2.46;68.01
45369;BME280;51342;55.250;37.668;2023-03-21T05:47:59;99096.53;;;2.57;67.42
45369;BME280;51342;55.250;37.668;2023-03-21T05:50:38;99094.25;;;2.72;67.36
45369;BME280;51342;55.250;37.668;2023-03-21T05:53:21;99098.44;;;2.82;67.06
45369;BME280;51342;55.250;37.668;2023-03-21T05:55:53;99103.38;;;2.90;66.72
45369;BME280;51342;55.250;37.668;2023-03-21T05:58:42;99106.28;;;2.95;66.60
45369;BME280;51342;55.250;37.668;2023-03-21T06:01:14;99103.94;;;2.98;66.41
45369;BME280;51342;55.250;37.668;2023-03-21T06:03:52;99103.16;;;2.99;66.44
45369;BME280;51342;55.250;37.668;2023-03-21T06:06:28;99101.09;;;3.05;66.34
45369;BME280;51342;55.250;37.668;2023-03-21T06:09:03;99097.47;;;3.13;66.19
45369;BME280;51342;55.250;37.668;2023-03-21T06:11:37;99096.16;;;3.18;65.97
45369;BME280;51342;55.250;37.668;2023-03-21T06:14:32;99089.72;;;3.24;65.96
45369;BME280;51342;55.250;37.668;2023-03-21T06:17:17;99094.53;;;3.31;65.61
45369;BME280;51342;55.250;37.668;2023-03-21T06:19:53;99094.19;;;3.38;65.31
45369;BME280;51342;55.250;37.668;2023-03-21T06:22:32;99095.91;;;3.49;65.28
45369;BME280;51342;55.250;37.668;2023-03-21T06:25:05;99091.59;;;3.60;64.91
45369;BME280;51342;55.250;37.668;2023-03-21T06:27:40;99078.03;;;3.72;64.88
45369;BME280;51342;55.250;37.668;2023-03-21T06:30:12;99086.06;;;3.89;64.59
45369;BME280;51342;55.250;37.668;2023-03-21T06:33:00;99078.28;;;3.99;64.43
45369;BME280;51342;55.250;37.668;2023-03-21T06:35:31;99081.28;;;4.17;63.76
45369;BME280;51342;55.250;37.668;2023-03-21T06:38:02;99078.81;;;4.30;63.20
45369;BME280;51342;55.250;37.668;2023-03-21T06:40:37;99075.13;;;4.38;63.30
45369;BME280;51342;55.250;37.668;2023-03-21T06:43:09;99068.78;;;4.45;63.02
45369;BME280;51342;55.250;37.668;2023-03-21T06:45:41;99075.13;;;4.50;63.16
45369;BME280;51342;55.250;37.668;2023-03-21T06:48:14;99075.53;;;4.56;62.68
45369;BME280;51342;55.250;37.668;2023-03-21T06:50:51;99066.94;;;4.67;62.57
45369;BME280;51342;55.250;37.668;2023-03-21T06:53:25;99063.09;;;4.86;62.70
45369;BME280;51342;55.250;37.668;2023-03-21T06:56:20;99052.22;;;5.01;62.35
45369;BME280;51342;55.250;37.668;2023-03-21T06:58:52;99049.81;;;5.16;61.81
45369;BME280;51342;55.250;37.668;2023-03-21T07:01:43;99052.66;;;5.21;60.60
45369;BME280;51342;55.250;37.668;2023-03-21T07:04:15;99055.38;;;5.22;60.83
45369;BME280;51342;55.250;37.668;2023-03-21T07:06:46;99048.25;;;5.31;60.82
45369;BME280;51342;55.250;37.668;2023-03-21T07:09:18;99048.09;;;5.42;60.16
45369;BME280;51342;55.250;37.668;2023-03-21T07:11:51;99047.72;;;5.49;59.83
45369;BME280;51342;55.250;37.668;2023-03-21T07:14:27;99047.22;;;5.54;59.60
45369;BME280;51342;55.250;37.668;2023-03-21T07:17:00;99039.94;;;5.61;59.11
45369;BME280;51342;55.250;37.668;2023-03-21T07:19:31;99049.84;;;5.68;59.05
45369;BME280;51342;55.250;37.668;2023-03-21T07:22:03;99039.97;;;5.74;58.93
45369;BME280;51342;55.250;37.668;2023-03-21T07:24:35;99034.53;;;5.82;57.96
45369;BME280;51342;55.250;37.668;2023-03-21T07:27:06;99024.84;;;5.78;57.57
45369;BME280;51342;55.250;37.668;2023-03-21T07:29:39;99031.78;;;5.79;57.63
45369;BME280;51342;55.250;37.668;2023-03-21T07:32:10;99025.94;;;5.82;57.86
45369;BME280;51342;55.250;37.668;2023-03-21T07:34:42;99029.78;;;5.89;57.54
45369;BME280;51342;55.250;37.668;2023-03-21T07:37:13;99029.84;;;6.02;57.74
45369;BME280;51342;55.250;37.668;2023-03-21T07:39:46;99027.06;;;6.12;57.43
45369;BME280;51342;55.250;37.668;2023-03-21T07:42:17;99025.09;;;6.21;57.42
45369;BME280;51342;55.250;37.668;2023-03-21T07:44:49;99017.84;;;6.29;57.03
45369;BME280;51342;55.250;37.668;2023-03-21T07:47:21;99022.47;;;6.34;56.81
45369;BME280;51342;55.250;37.668;2023-03-21T07:49:52;99019.91;;;6.34;56.50
45369;BME280;51342;55.250;37.668;2023-03-21T07:52:24;99022.47;;;6.34;56.28
45369;BME280;51342;55.250;37.668;2023-03-21T07:54:55;99027.44;;;6.31;56.49
45369;BME280;51342;55.250;37.668;2023-03-21T07:57:27;99027.34;;;6.30;56.49
45369;BME280;51342;55.250;37.668;2023-03-21T07:59:58;99023.88;;;6.29;56.90
45369;BME280;51342;55.250;37.668;2023-03-21T08:02:30;99021.03;;;6.25;56.92
45369;BME280;51342;55.250;37.668;2023-03-21T08:05:01;99019.34;;;6.25;57.00
45369;BME280;51342;55.250;37.668;2023-03-21T08:07:34;99031.19;;;6.23;57.02
45369;BME280;51342;55.250;37.668;2023-03-21T08:10:07;99031.91;;;6.21;57.07
45369;BME280;51342;55.250;37.668;2023-03-21T08:12:40;99033.50;;;6.19;57.05
45369;BME280;51342;55.250;37.668;2023-03-21T08:15:14;99028.44;;;6.20;57.39
45369;BME280;51342;55.250;37.668;2023-03-21T08:17:46;99027.84;;;6.24;57.14
45369;BME280;51342;55.250;37.668;2023-03-21T08:20:20;99034.94;;;6.28;57.40
45369;BME280;51342;55.250;37.668;2023-03-21T08:22:52;99026.56;;;6.31;57.37
45369;BME280;51342;55.250;37.668;2023-03-21T08:25:23;99022.91;;;6.27;57.33
45369;BME280;51342;55.250;37.668;2023-03-21T08:27:54;99022.72;;;6.24;57.28
45369;BME280;51342;55.250;37.668;2023-03-21T08:30:27;99029.41;;;6.22;57.12
45369;BME280;51342;55.250;37.668;2023-03-21T08:32:59;99031.69;;;6.18;57.66
45369;BME280;51342;55.250;37.668;2023-03-21T08:35:32;99032.19;;;6.12;57.80
45369;BME280;51342;55.250;37.668;2023-03-21T08:38:05;99031.63;;;6.03;57.88
45369;BME280;51342;55.250;37.668;2023-03-21T08:40:36;99029.63;;;5.99;57.96
45369;BME280;51342;55.250;37.668;2023-03-21T08:43:08;99030.13;;;5.93;58.32
45369;BME280;51342;55.250;37.668;2023-03-21T08:45:39;99032.38;;;5.89;57.81
45369;BME280;51342;55.250;37.668;2023-03-21T08:48:11;99035.41;;;5.83;58.02
45369;BME280;51342;55.250;37.668;2023-03-21T08:50:42;99029.81;;;5.75;58.33
45369;BME280;51342;55.250;37.668;2023-03-21T08:53:14;99036.53;;;5.73;58.81
45369;BME280;51342;55.250;37.668;2023-03-21T08:55:45;99031.25;;;5.72;58.49
45369;BME280;51342;55.250;37.668;2023-03-21T08:58:17;99032.06;;;5.71;59.16
45369;BME280;51342;55.250;37.668;2023-03-21T09:00:48;99033.75;;;5.70;59.01
45369;BME280;51342;55.250;37.668;2023-03-21T09:03:20;99027.31;;;5.77;58.92
45369;BME280;51342;55.250;37.668;2023-03-21T09:05:55;99029.97;;;5.78;58.71
45369;BME280;51342;55.250;37.668;2023-03-21T09:08:26;99034.63;;;5.84;58.50
45369;BME280;51342;55.250;37.668;2023-03-21T09:10:58;99031.38;;;5.87;58.54
45369;BME280;51342;55.250;37.668;2023-03-21T09:13:29;99026.34;;;5.88;58.45
45369;BME280;51342;55.250;37.668;2023-03-21T09:16:00;99025.38;;;5.86;58.22
45369;BME280;51342;55.250;37.668;2023-03-21T09:18:32;99028.81;;;5.87;58.74
45369;BME280;51342;55.250;37.668;2023-03-21T09:21:18;99032.97;;;5.84;58.69
45369;BME280;51342;55.250;37.668;2023-03-21T09:23:51;99031.47;;;5.88;58.69
45369;BME280;51342;55.250;37.668;2023-03-21T09:26:25;99025.78;;;5.92;58.61
45369;BME280;51342;55.250;37.668;2023-03-21T09:28:58;99037.16;;;5.96;58.37
45369;BME280;51342;55.250;37.668;2023-03-21T09:31:31;99030.44;;;5.98;58.77
45369;BME280;51342;55.250;37.668;2023-03-21T09:34:02;99025.47;;;6.01;58.63
45369;BME280;51342;55.250;37.668;2023-03-21T09:36:34;99029.84;;;6.02;58.45
45369;BME280;51342;55.250;37.668;2023-03-21T09:39:06;99030.81;;;6.04;58.42
45369;BME280;51342;55.250;37.668;2023-03-21T09:44:30;99023.13;;;6.04;58.37
45369;BME280;51342;55.250;37.668;2023-03-21T09:47:20;99021.53;;;5.93;58.50
45369;BME280;51342;55.250;37.668;2023-03-21T09:50:09;99019.53;;;5.89;58.69
45369;BME280;51342;55.250;37.668;2023-03-21T09:55:23;99015.28;;;5.89;58.82
45369;BME280;51342;55.250;37.668;2023-03-21T09:58:28;99014.00;;;5.82;58.97
45369;BME280;51342;55.250;37.668;2023-03-21T10:01:16;99008.69;;;5.79;58.65
45369;BME280;51342;55.250;37.668;2023-03-21T10:04:05;99007.09;;;5.81;58.96
45369;BME280;51342;55.250;37.668;2023-03-21T10:06:38;99006.38;;;5.84;58.80
45369;BME280;51342;55.250;37.668;2023-03-21T10:09:15;99002.44;;;5.89;59.13
45369;BME280;51342;55.250;37.668;2023-03-21T10:11:52;99003.66;;;5.94;58.98
45369;BME280;51342;55.250;37.668;2023-03-21T10:14:34;99002.66;;;5.79;59.34
45369;BME280;51342;55.250;37.668;2023-03-21T10:20:18;99001.88;;;5.93;58.85
45369;BME280;51342;55.250;37.668;2023-03-21T10:22:53;99001.47;;;6.00;59.06
45369;BME280;51342;55.250;37.668;2023-03-21T10:25:39;98984.31;;;5.99;58.89
45369;BME280;51342;55.250;37.668;2023-03-21T10:28:17;98986.38;;;6.05;59.14
45369;BME280;51342;55.250;37.668;2023-03-21T10:30:55;98991.22;;;6.14;58.81
45369;BME280;51342;55.250;37.668;2023-03-21T10:33:38;98983.78;;;6.18;58.63
45369;BME280;51342;55.250;37.668;2023-03-21T10:36:32;98987.81;;;6.28;58.49
45369;BME280;51342;55.250;37.668;2023-03-21T10:39:07;98978.22;;;6.38;58.55
45369;BME280;51342;55.250;37.668;2023-03-21T10:41:45;98971.69;;;6.44;58.04
45369;BME280;51342;55.250;37.668;2023-03-21T10:44:17;98966.59;;;6.58;58.33
45369;BME280;51342;55.250;37.668;2023-03-21T10:46:57;98963.88;;;6.70;57.85
45369;BME280;51342;55.250;37.668;2023-03-21T10:49:29;98963.81;;;6.83;57.51
45369;BME280;51342;55.250;37.668;2023-03-21T10:52:05;98957.97;;;6.86;57.09
45369;BME280;51342;55.250;37.668;2023-03-21T10:54:37;98949.63;;;6.90;56.95
45369;BME280;51342;55.250;37.668;2023-03-21T10:57:15;98939.72;;;6.96;57.23
45369;BME280;51342;55.250;37.668;2023-03-21T10:59:54;98940.28;;;7.05;56.70
45369;BME280;51342;55.250;37.668;2023-03-21T11:02:33;98929.97;;;7.05;56.71
45369;BME280;51342;55.250;37.668;2023-03-21T11:05:12;98935.91;;;7.19;56.61
45369;BME280;51342;55.250;37.668;2023-03-21T11:07:56;98947.72;;;7.30;55.70
45369;BME280;51342;55.250;37.668;2023-03-21T11:10:31;98942.38;;;7.42;55.88
45369;BME280;51342;55.250;37.668;2023-03-21T11:13:22;98939.28;;;7.48;55.15
45369;BME280;51342;55.250;37.668;2023-03-21T11:15:57;98939.72;;;7.55;55.00
45369;BME280;51342;55.250;37.668;2023-03-21T11:18:30;98935.88;;;7.63;54.64
45369;BME280;51342;55.250;37.668;2023-03-21T11:21:07;98927.69;;;7.70;54.63
45369;BME280;51342;55.250;37.668;2023-03-21T11:23:49;98925.66;;;7.80;54.18
45369;BME280;51342;55.250;37.668;2023-03-21T11:26:29;98932.03;;;7.86;54.14
45369;BME280;51342;55.250;37.668;2023-03-21T11:29:47;98933.56;;;7.83;54.16
45369;BME280;51342;55.250;37.668;2023-03-21T11:32:18;98927.50;;;7.82;53.49
45369;BME280;51342;55.250;37.668;2023-03-21T11:34:56;98927.94;;;7.90;52.03
45369;BME280;51342;55.250;37.668;2023-03-21T11:37:38;98932.28;;;7.91;51.85
45369;BME280;51342;55.250;37.668;2023-03-21T11:42:54;98923.81;;;7.93;52.21
45369;BME280;51342;55.250;37.668;2023-03-21T11:45:28;98911.59;;;7.89;52.30
45369;BME280;51342;55.250;37.668;2023-03-21T11:48:06;98920.84;;;7.86;52.18
45369;BME280;51342;55.250;37.668;2023-03-21T11:50:46;98911.63;;;7.75;52.45
45369;BME280;51342;55.250;37.668;2023-03-21T11:59:30;98902.75;;;7.38;53.10
45369;BME280;51342;55.250;37.668;2023-03-21T12:05:52;98893.00;;;7.33;52.99
45369;BME280;51342;55.250;37.668;2023-03-21T12:08:08;98896.25;;;7.30;52.79
45369;BME280;51342;55.250;37.668;2023-03-21T12:11:06;98891.75;;;7.26;53.39
45369;BME280;51342;55.250;37.668;2023-03-21T12:16:47;98885.34;;;7.20;52.43
45369;BME280;51342;55.250;37.668;2023-03-21T12:25:31;98881.91;;;7.04;53.16
45369;BME280;51342;55.250;37.668;2023-03-21T12:39:45;98868.63;;;6.82;52.33
45369;BME280;51342;55.250;37.668;2023-03-21T12:42:28;98862.75;;;6.84;52.40
45369;BME280;51342;55.250;37.668;2023-03-21T12:45:20;98854.88;;;6.81;51.87
45369;BME280;51342;55.250;37.668;2023-03-21T12:48:10;98858.41;;;6.83;52.02
45369;BME280;51342;55.250;37.668;2023-03-21T12:50:46;98860.38;;;6.87;52.08
45369;BME280;51342;55.250;37.668;2023-03-21T12:53:50;98854.88;;;6.81;51.68
45369;BME280;51342;55.250;37.668;2023-03-21T12:56:30;98865.03;;;6.80;51.75
45369;BME280;51342;55.250;37.668;2023-03-21T12:59:13;98858.66;;;6.73;51.85
45369;BME280;51342;55.250;37.668;2023-03-21T13:01:50;98854.94;;;6.68;51.71
45369;BME280;51342;55.250;37.668;2023-03-21T13:04:55;98852.00;;;6.62;52.08
45369;BME280;51342;55.250;37.668;2023-03-21T13:07:32;98851.91;;;6.60;51.69
45369;BME280;51342;55.250;37.668;2023-03-21T13:10:20;98855.72;;;6.52;51.95
45369;BME280;51342;55.250;37.668;2023-03-21T13:15:56;98844.63;;;6.38;52.14
45369;BME280;51342;55.250;37.668;2023-03-21T13:18:58;98846.03;;;6.33;52.60
45369;BME280;51342;55.250;37.668;2023-03-21T13:24:40;98841.13;;;6.23;51.77
45369;BME280;51342;55.250;37.668;2023-03-21T13:27:32;98835.53;;;6.16;51.54
45369;BME280;51342;55.250;37.668;2023-03-21T13:30:20;98835.63;;;6.17;51.33
45369;BME280;51342;55.250;37.668;2023-03-21T13:33:08;98837.91;;;6.13;51.87
45369;BME280;51342;55.250;37.668;2023-03-21T13:35:43;98837.91;;;6.13;51.93
45369;BME280;51342;55.250;37.668;2023-03-21T13:38:17;98838.03;;;6.14;51.47
45369;BME280;51342;55.250;37.668;2023-03-21T13:40:55;98841.38;;;6.13;50.83
45369;BME280;51342;55.250;37.668;2023-03-21T13:49:04;98838.25;;;6.04;50.77
45369;BME280;51342;55.250;37.668;2023-03-21T13:51:55;98825.84;;;5.97;50.89
45369;BME280;51342;55.250;37.668;2023-03-21T13:57:39;98833.13;;;5.91;51.54
45369;BME280;51342;55.250;37.668;2023-03-21T14:00:26;98840.53;;;5.86;50.98
45369;BME280;51342;55.250;37.668;2023-03-21T14:03:14;98844.59;;;5.82;50.99
45369;BME280;51342;55.250;37.668;2023-03-21T14:05:48;98842.09;;;5.84;50.31
45369;BME280;51342;55.250;37.668;2023-03-21T14:08:23;98829.78;;;5.78;50.68
45369;BME280;51342;55.250;37.668;2023-03-21T14:10:59;98827.03;;;5.75;50.81
45369;BME280;51342;55.250;37.668;2023-03-21T14:13:34;98832.19;;;5.75;50.60
45369;BME280;51342;55.250;37.668;2023-03-21T14:16:10;98833.78;;;5.73;50.20
45369;BME280;51342;55.250;37.668;2023-03-21T14:18:55;98836.84;;;5.68;50.35
45369;BME280;51342;55.250;37.668;2023-03-21T14:21:29;98830.78;;;5.67;50.14
45369;BME280;51342;55.250;37.668;2023-03-21T14:24:11;98834.78;;;5.62;50.34
45369;BME280;51342;55.250;37.668;2023-03-21T14:26:47;98831.22;;;5.60;50.70
45369;BME280;51342;55.250;37.668;2023-03-21T14:29:45;98832.44;;;5.52;50.21
45369;BME280;51342;55.250;37.668;2023-03-21T14:32:24;98833.47;;;5.55;50.65
45369;BME280;51342;55.250;37.668;2023-03-21T14:34:59;98831.53;;;5.51;50.82
45369;BME280;51342;55.250;37.668;2023-03-21T14:37:40;98833.59;;;5.44;50.73
45369;BME280;51342;55.250;37.668;2023-03-21T14:40:23;98836.66;;;5.38;50.98
45369;BME280;51342;55.250;37.668;2023-03-21T14:42:54;98830.78;;;5.39;51.20
45369;BME280;51342;55.250;37.668;2023-03-21T14:45:28;98825.34;;;5.35;51.67
45369;BME280;51342;55.250;37.668;2023-03-21T14:48:06;98827.41;;;5.27;51.64
45369;BME280;51342;55.250;37.668;2023-03-21T14:50:48;98833.44;;;5.01;52.03
45369;BME280;51342;55.250;37.668;2023-03-21T14:53:27;98835.50;;;5.07;52.26
45369;BME280;51342;55.250;37.668;2023-03-21T14:56:07;98831.94;;;5.04;51.89
45369;BME280;51342;55.250;37.668;2023-03-21T14:58:41;98818.25;;;5.04;51.80
45369;BME280;51342;55.250;37.668;2023-03-21T15:01:34;98828.88;;;4.97;52.35
45369;BME280;51342;55.250;37.668;2023-03-21T15:04:06;98827.22;;;4.97;52.10
45369;BME280;51342;55.250;37.668;2023-03-21T15:06:57;98824.47;;;4.94;51.69
45369;BME280;51342;55.250;37.668;2023-03-21T15:09:32;98828.50;;;4.91;51.89
45369;BME280;51342;55.250;37.668;2023-03-21T15:12:07;98835.22;;;4.89;52.21
45369;BME280;51342;55.250;37.668;2023-03-21T15:14:39;98832.53;;;4.87;51.71
45369;BME280;51342;55.250;37.668;2023-03-21T15:17:11;98831.25;;;4.81;52.10
45369;BME280;51342;55.250;37.668;2023-03-21T15:19:43;98835.47;;;4.80;51.26